sensor_id;sensor_type;location;lat;lon;timestamp;P1;durP1;ratioP1;P2;durP2;ratioP2
61003;SDS011;46889;37.310;13.582;2022-07-29T16:24:44;6.83;;;3.07;;
61003;SDS011;46889;37.310;13.582;2022-07-29T16:27:11;7.43;;;2.80;;
61003;SDS011;46889;37.310;13.582;2022-07-29T16:32:03;10.45;;;3.70;;
61003;SDS011;46889;37.310;13.582;2022-07-29T16:34:30;7.75;;;3.28;;
61003;SDS011;46889;37.310;13.582;2022-07-29T16:39:21;12.90;;;3.08;;
61003;SDS011;46889;37.310;13.582;2022-07-29T16:44:13;6.70;;;3.40;;
61003;SDS011;46889;37.310;13.582;2022-07-29T16:46:42;14.68;;;3.88;;
61003;SDS011;46889;37.310;13.582;2022-07-29T16:49:08;15.70;;;4.18;;
61003;SDS011;46889;37.310;13.582;2022-07-29T16:51:34;8.57;;;3.60;;
61003;SDS011;46889;37.310;13.582;2022-07-29T16:54:00;10.25;;;3.40;;
61003;SDS011;46889;37.310;13.582;2022-07-29T16:58:52;10.75;;;3.58;;
61003;SDS011;46889;37.310;13.582;2022-07-29T17:01:18;12.02;;;3.42;;
61003;SDS011;46889;37.310;13.582;2022-07-29T17:03:44;9.52;;;4.15;;
61003;SDS011;46889;37.310;13.582;2022-07-29T17:06:29;7.00;;;3.47;;
61003;SDS011;46889;37.310;13.582;2022-07-29T17:08:56;13.18;;;3.78;;
61003;SDS011;46889;37.310;13.582;2022-07-29T17:11:23;10.48;;;3.55;;
61003;SDS011;46889;37.310;13.582;2022-07-29T17:16:14;9.25;;;4.13;;
61003;SDS011;46889;37.310;13.582;2022-07-29T17:21:06;13.32;;;4.70;;
61003;SDS011;46889;37.310;13.582;2022-07-29T17:23:32;10.88;;;4.32;;
61003;SDS011;46889;37.310;13.582;2022-07-29T17:25:58;9.88;;;4.70;;
61003;SDS011;46889;37.310;13.582;2022-07-29T17:30:50;14.07;;;5.10;;
61003;SDS011;46889;37.310;13.582;2022-07-29T17:33:17;10.77;;;5.50;;
61003;SDS011;46889;37.310;13.582;2022-07-29T17:35:43;12.88;;;5.50;;
61003;SDS011;46889;37.310;13.582;2022-07-29T17:38:27;12.05;;;5.20;;
61003;SDS011;46889;37.310;13.582;2022-07-29T17:40:53;8.55;;;4.88;;
61003;SDS011;46889;37.310;13.582;2022-07-29T17:43:20;14.25;;;5.40;;
61003;SDS011;46889;37.310;13.582;2022-07-29T17:45:46;11.27;;;5.40;;
61003;SDS011;46889;37.310;13.582;2022-07-29T17:48:12;12.02;;;5.57;;
61003;SDS011;46889;37.310;13.582;2022-07-29T17:50:38;10.80;;;5.30;;
61003;SDS011;46889;37.310;13.582;2022-07-29T17:53:04;12.07;;;5.50;;
61003;SDS011;46889;37.310;13.582;2022-07-29T17:55:30;12.05;;;5.95;;
61003;SDS011;46889;37.310;13.582;2022-07-29T17:57:56;11.27;;;6.75;;
61003;SDS011;46889;37.310;13.582;2022-07-29T18:00:22;17.15;;;7.47;;
61003;SDS011;46889;37.310;13.582;2022-07-29T18:02:49;19.13;;;11.30;;
61003;SDS011;46889;37.310;13.582;2022-07-29T18:05:15;31.30;;;16.17;;
61003;SDS011;46889;37.310;13.582;2022-07-29T18:07:41;18.45;;;8.18;;
61003;SDS011;46889;37.310;13.582;2022-07-29T18:10:07;18.30;;;8.65;;
61003;SDS011;46889;37.310;13.582;2022-07-29T18:12:34;16.17;;;8.15;;
61003;SDS011;46889;37.310;13.582;2022-07-29T18:15:00;12.05;;;6.45;;
61003;SDS011;46889;37.310;13.582;2022-07-29T18:17:26;12.32;;;6.32;;
61003;SDS011;46889;37.310;13.582;2022-07-29T18:19:52;10.02;;;5.78;;
61003;SDS011;46889;37.310;13.582;2022-07-29T18:22:18;10.32;;;5.97;;
61003;SDS011;46889;37.310;13.582;2022-07-29T18:24:46;10.55;;;6.03;;
61003;SDS011;46889;37.310;13.582;2022-07-29T18:27:12;11.50;;;6.28;;
61003;SDS011;46889;37.310;13.582;2022-07-29T18:29:38;11.02;;;5.95;;
61003;SDS011;46889;37.310;13.582;2022-07-29T18:32:04;17.23;;;7.30;;
61003;SDS011;46889;37.310;13.582;2022-07-29T18:34:30;15.75;;;7.03;;
61003;SDS011;46889;37.310;13.582;2022-07-29T18:36:56;10.90;;;6.32;;
61003;SDS011;46889;37.310;13.582;2022-07-29T18:41:49;12.20;;;6.05;;
61003;SDS011;46889;37.310;13.582;2022-07-29T18:44:15;16.50;;;7.05;;
61003;SDS011;46889;37.310;13.582;2022-07-29T18:46:42;12.63;;;6.82;;
61003;SDS011;46889;37.310;13.582;2022-07-29T18:49:08;15.57;;;6.60;;
61003;SDS011;46889;37.310;13.582;2022-07-29T18:54:00;16.02;;;7.25;;
61003;SDS011;46889;37.310;13.582;2022-07-29T18:56:26;18.25;;;6.63;;
61003;SDS011;46889;37.310;13.582;2022-07-29T18:58:53;13.73;;;6.50;;
61003;SDS011;46889;37.310;13.582;2022-07-29T19:01:19;12.68;;;6.80;;
61003;SDS011;46889;37.310;13.582;2022-07-29T19:03:45;17.98;;;6.80;;
61003;SDS011;46889;37.310;13.582;2022-07-29T19:06:12;10.55;;;6.50;;
61003;SDS011;46889;37.310;13.582;2022-07-29T19:08:38;15.00;;;6.68;;
61003;SDS011;46889;37.310;13.582;2022-07-29T19:11:05;14.90;;;7.47;;
61003;SDS011;46889;37.310;13.582;2022-07-29T19:13:32;16.02;;;6.55;;
61003;SDS011;46889;37.310;13.582;2022-07-29T19:15:58;13.25;;;6.10;;
61003;SDS011;46889;37.310;13.582;2022-07-29T19:18:24;12.93;;;5.80;;
61003;SDS011;46889;37.310;13.582;2022-07-29T19:20:50;12.88;;;6.43;;
61003;SDS011;46889;37.310;13.582;2022-07-29T19:23:16;15.27;;;7.40;;
61003;SDS011;46889;37.310;13.582;2022-07-29T19:28:08;13.38;;;6.45;;
61003;SDS011;46889;37.310;13.582;2022-07-29T19:30:34;19.42;;;6.32;;
61003;SDS011;46889;37.310;13.582;2022-07-29T19:33:00;13.20;;;6.60;;
61003;SDS011;46889;37.310;13.582;2022-07-29T19:35:26;11.65;;;5.80;;
61003;SDS011;46889;37.310;13.582;2022-07-29T19:37:55;12.20;;;5.70;;
61003;SDS011;46889;37.310;13.582;2022-07-29T19:40:23;15.95;;;5.78;;
61003;SDS011;46889;37.310;13.582;2022-07-29T19:42:50;13.50;;;6.03;;
61003;SDS011;46889;37.310;13.582;2022-07-29T19:45:23;12.95;;;6.95;;
61003;SDS011;46889;37.310;13.582;2022-07-29T19:47:50;16.45;;;7.90;;
61003;SDS011;46889;37.310;13.582;2022-07-29T19:50:17;15.35;;;9.50;;
61003;SDS011;46889;37.310;13.582;2022-07-29T19:52:43;16.65;;;9.13;;
61003;SDS011;46889;37.310;13.582;2022-07-29T19:55:11;18.98;;;9.27;;
61003;SDS011;46889;37.310;13.582;2022-07-29T19:57:38;16.20;;;9.57;;
61003;SDS011;46889;37.310;13.582;2022-07-29T20:00:04;17.40;;;10.27;;
61003;SDS011;46889;37.310;13.582;2022-07-29T20:02:34;18.10;;;10.02;;
61003;SDS011;46889;37.310;13.582;2022-07-29T20:05:00;21.50;;;10.73;;
61003;SDS011;46889;37.310;13.582;2022-07-29T20:09:55;18.88;;;10.75;;
61003;SDS011;46889;37.310;13.582;2022-07-29T20:12:21;17.30;;;10.95;;
61003;SDS011;46889;37.310;13.582;2022-07-29T20:17:14;17.70;;;9.80;;
61003;SDS011;46889;37.310;13.582;2022-07-29T20:19:41;18.17;;;10.55;;
61003;SDS011;46889;37.310;13.582;2022-07-29T20:31:51;21.70;;;9.88;;
61003;SDS011;46889;37.310;13.582;2022-07-29T20:34:17;17.60;;;9.10;;
61003;SDS011;46889;37.310;13.582;2022-07-29T20:36:44;12.85;;;8.82;;
61003;SDS011;46889;37.310;13.582;2022-07-29T20:41:36;15.48;;;8.98;;
61003;SDS011;46889;37.310;13.582;2022-07-29T20:44:03;13.15;;;8.10;;
61003;SDS011;46889;37.310;13.582;2022-07-29T20:46:29;15.02;;;8.48;;
61003;SDS011;46889;37.310;13.582;2022-07-29T20:48:55;11.52;;;7.75;;
61003;SDS011;46889;37.310;13.582;2022-07-29T20:51:21;13.80;;;7.55;;
61003;SDS011;46889;37.310;13.582;2022-07-29T20:53:47;11.13;;;7.88;;
61003;SDS011;46889;37.310;13.582;2022-07-29T20:56:14;15.40;;;7.68;;
61003;SDS011;46889;37.310;13.582;2022-07-29T21:01:06;16.40;;;8.23;;
61003;SDS011;46889;37.310;13.582;2022-07-29T21:03:33;15.02;;;7.60;;
61003;SDS011;46889;37.310;13.582;2022-07-29T21:06:00;13.60;;;7.03;;
61003;SDS011;46889;37.310;13.582;2022-07-29T21:08:26;15.05;;;7.50;;
61003;SDS011;46889;37.310;13.582;2022-07-29T21:13:19;13.43;;;7.10;;
61003;SDS011;46889;37.310;13.582;2022-07-29T21:15:47;15.95;;;8.20;;
61003;SDS011;46889;37.310;13.582;2022-07-29T21:18:14;12.82;;;7.30;;
61003;SDS011;46889;37.310;13.582;2022-07-29T21:20:57;16.23;;;7.97;;
61003;SDS011;46889;37.310;13.582;2022-07-29T21:23:27;18.67;;;8.75;;
61003;SDS011;46889;37.310;13.582;2022-07-29T21:25:54;15.10;;;8.30;;
61003;SDS011;46889;37.310;13.582;2022-07-29T21:28:20;12.90;;;7.82;;
61003;SDS011;46889;37.310;13.582;2022-07-29T21:31:15;14.15;;;7.57;;
61003;SDS011;46889;37.310;13.582;2022-07-29T21:33:42;13.48;;;7.80;;
61003;SDS011;46889;37.310;13.582;2022-07-29T21:36:10;12.70;;;7.78;;
61003;SDS011;46889;37.310;13.582;2022-07-29T21:38:38;12.75;;;7.47;;
61003;SDS011;46889;37.310;13.582;2022-07-29T21:41:04;12.73;;;7.72;;
61003;SDS011;46889;37.310;13.582;2022-07-29T21:43:31;14.85;;;7.55;;
61003;SDS011;46889;37.310;13.582;2022-07-29T21:45:57;13.38;;;7.68;;
61003;SDS011;46889;37.310;13.582;2022-07-29T21:48:24;16.02;;;8.05;;
61003;SDS011;46889;37.310;13.582;2022-07-29T21:50:51;10.40;;;7.57;;
61003;SDS011;46889;37.310;13.582;2022-07-29T21:53:18;12.88;;;8.55;;
61003;SDS011;46889;37.310;13.582;2022-07-29T21:55:45;13.80;;;7.88;;
61003;SDS011;46889;37.310;13.582;2022-07-29T21:58:11;16.58;;;11.32;;
61003;SDS011;46889;37.310;13.582;2022-07-29T22:00:40;14.82;;;8.32;;
61003;SDS011;46889;37.310;13.582;2022-07-29T22:03:06;14.95;;;8.73;;
61003;SDS011;46889;37.310;13.582;2022-07-29T22:05:33;16.80;;;8.52;;
61003;SDS011;46889;37.310;13.582;2022-07-29T22:08:00;16.23;;;8.23;;
61003;SDS011;46889;37.310;13.582;2022-07-29T22:10:28;14.88;;;9.20;;
61003;SDS011;46889;37.310;13.582;2022-07-29T22:12:56;13.43;;;8.23;;
61003;SDS011;46889;37.310;13.582;2022-07-29T22:15:23;14.02;;;8.27;;
61003;SDS011;46889;37.310;13.582;2022-07-29T22:17:49;12.98;;;8.10;;
61003;SDS011;46889;37.310;13.582;2022-07-29T22:20:15;12.63;;;8.10;;
61003;SDS011;46889;37.310;13.582;2022-07-29T22:22:41;14.15;;;8.90;;
61003;SDS011;46889;37.310;13.582;2022-07-29T22:25:08;11.65;;;7.85;;
61003;SDS011;46889;37.310;13.582;2022-07-29T22:27:35;16.90;;;8.57;;
61003;SDS011;46889;37.310;13.582;2022-07-29T22:30:03;14.77;;;8.35;;
61003;SDS011;46889;37.310;13.582;2022-07-29T22:32:30;15.10;;;8.57;;
61003;SDS011;46889;37.310;13.582;2022-07-29T22:34:57;17.13;;;9.50;;
61003;SDS011;46889;37.310;13.582;2022-07-29T22:37:23;15.77;;;7.88;;
61003;SDS011;46889;37.310;13.582;2022-07-29T22:39:49;12.23;;;7.90;;
61003;SDS011;46889;37.310;13.582;2022-07-29T22:42:15;16.17;;;8.93;;
61003;SDS011;46889;37.310;13.582;2022-07-29T22:44:41;13.40;;;8.88;;
61003;SDS011;46889;37.310;13.582;2022-07-29T22:47:07;17.92;;;9.40;;
61003;SDS011;46889;37.310;13.582;2022-07-29T22:49:33;12.70;;;8.52;;
61003;SDS011;46889;37.310;13.582;2022-07-29T22:51:59;15.48;;;9.32;;
61003;SDS011;46889;37.310;13.582;2022-07-29T22:54:25;16.90;;;8.85;;
61003;SDS011;46889;37.310;13.582;2022-07-29T22:56:51;14.73;;;8.70;;
61003;SDS011;46889;37.310;13.582;2022-07-29T22:59:17;18.35;;;8.23;;
61003;SDS011;46889;37.310;13.582;2022-07-29T23:01:44;17.02;;;9.05;;
61003;SDS011;46889;37.310;13.582;2022-07-29T23:04:10;15.98;;;9.73;;
61003;SDS011;46889;37.310;13.582;2022-07-29T23:06:36;17.35;;;9.15;;
61003;SDS011;46889;37.310;13.582;2022-07-29T23:09:02;17.90;;;8.52;;
61003;SDS011;46889;37.310;13.582;2022-07-29T23:16:20;13.32;;;7.90;;
61003;SDS011;46889;37.310;13.582;2022-07-29T23:18:46;10.93;;;7.45;;
61003;SDS011;46889;37.310;13.582;2022-07-29T23:21:12;11.77;;;6.85;;
61003;SDS011;46889;37.310;13.582;2022-07-29T23:23:38;11.48;;;7.65;;
61003;SDS011;46889;37.310;13.582;2022-07-29T23:26:04;14.00;;;7.63;;
61003;SDS011;46889;37.310;13.582;2022-07-29T23:28:30;13.38;;;8.07;;
61003;SDS011;46889;37.310;13.582;2022-07-29T23:30:56;11.40;;;7.85;;
61003;SDS011;46889;37.310;13.582;2022-07-29T23:33:22;13.75;;;9.00;;
61003;SDS011;46889;37.310;13.582;2022-07-29T23:35:48;15.60;;;8.25;;
61003;SDS011;46889;37.310;13.582;2022-07-29T23:38:14;15.63;;;9.55;;
61003;SDS011;46889;37.310;13.582;2022-07-29T23:40:40;14.65;;;9.45;;
61003;SDS011;46889;37.310;13.582;2022-07-29T23:43:06;10.80;;;8.07;;
61003;SDS011;46889;37.310;13.582;2022-07-29T23:45:32;12.93;;;7.88;;
61003;SDS011;46889;37.310;13.582;2022-07-29T23:47:58;15.30;;;9.10;;
61003;SDS011;46889;37.310;13.582;2022-07-29T23:50:25;13.52;;;8.02;;
61003;SDS011;46889;37.310;13.582;2022-07-29T23:52:51;17.15;;;8.48;;
61003;SDS011;46889;37.310;13.582;2022-07-29T23:55:17;10.55;;;7.93;;
61003;SDS011;46889;37.310;13.582;2022-07-29T23:57:43;13.35;;;7.95;;
